createdAt,value
2022-09-21T00:02:01.084Z,5.22
2022-09-21T00:05:03.755Z,4.78
2022-09-21T00:08:08.236Z,4.70
2022-09-21T00:11:15.330Z,4.90
2022-09-21T00:14:18.666Z,4.28
2022-09-21T00:17:21.197Z,4.28
2022-09-21T00:20:25.034Z,4.80
2022-09-21T00:23:27.404Z,4.22
2022-09-21T00:26:30.224Z,4.73
2022-09-21T00:29:32.655Z,4.50
2022-09-21T00:32:37.298Z,4.57
2022-09-21T00:35:39.748Z,4.32
2022-09-21T00:38:42.421Z,4.40
2022-09-21T00:41:45.679Z,4.57
2022-09-21T00:44:48.131Z,4.60
2022-09-21T00:47:52.586Z,3.72
2022-09-21T00:50:58.920Z,4.18
2022-09-21T00:54:05.188Z,4.28
2022-09-21T00:57:08.067Z,4.70
2022-09-21T01:00:11.238Z,4.30
2022-09-21T01:03:13.854Z,4.95
2022-09-21T01:06:20.896Z,4.20
2022-09-21T01:09:23.643Z,4.90
2022-09-21T01:12:37.337Z,4.03
2022-09-21T01:16:05.983Z,4.50
2022-09-21T01:19:27.291Z,4.90
2022-09-21T01:23:03.697Z,4.30
2022-09-21T01:26:05.993Z,4.22
2022-09-21T01:29:27.123Z,5.07
2022-09-21T01:32:32.944Z,4.28
2022-09-21T01:35:39.891Z,4.40
2022-09-21T01:38:52.718Z,5.13
2022-09-21T01:41:57.591Z,5.25
2022-09-21T01:45:03.720Z,4.63
2022-09-21T01:48:06.191Z,5.00
2022-09-21T01:51:11.761Z,5.22
2022-09-21T01:54:24.073Z,5.03
2022-09-21T01:57:43.331Z,5.18
2022-09-21T02:00:48.894Z,5.10
2022-09-21T02:04:12.358Z,5.88
2022-09-21T02:07:17.611Z,5.53
2022-09-21T02:10:23.903Z,6.22
2022-09-21T02:13:31.098Z,5.75
2022-09-21T02:16:40.132Z,5.10
2022-09-21T02:20:20.482Z,5.97
2022-09-21T02:23:37.682Z,5.32
2022-09-21T02:26:46.149Z,5.20
2022-09-21T02:30:01.840Z,6.05
2022-09-21T02:33:24.891Z,5.53
2022-09-21T02:36:48.028Z,6.35
2022-09-21T02:40:18.443Z,6.22
2022-09-21T02:43:33.088Z,6.10
2022-09-21T02:46:54.245Z,6.40
2022-09-21T02:50:04.242Z,6.83
2022-09-21T02:53:08.911Z,6.75
2022-09-21T02:56:13.217Z,6.60
2022-09-21T02:59:17.146Z,7.05
2022-09-21T03:02:19.598Z,7.03
2022-09-21T03:05:22.022Z,6.87
2022-09-21T03:08:24.605Z,6.55
2022-09-21T03:11:27.054Z,7.07
2022-09-21T03:14:29.600Z,7.40
2022-09-21T03:17:31.995Z,7.15
2022-09-21T03:20:38.599Z,7.43
2022-09-21T03:23:41.295Z,6.85
2022-09-21T03:26:43.676Z,7.10
2022-09-21T03:29:46.752Z,7.32
2022-09-21T03:32:50.485Z,7.10
2022-09-21T03:35:53.329Z,6.80
2022-09-21T03:38:56.170Z,8.43
2022-09-21T03:41:58.744Z,6.95
2022-09-21T03:45:01.792Z,7.72
2022-09-21T03:48:04.454Z,8.15
2022-09-21T03:51:06.810Z,7.20
2022-09-21T03:54:09.611Z,7.70
2022-09-21T03:57:11.965Z,7.95
2022-09-21T04:00:14.818Z,7.47
2022-09-21T04:03:17.144Z,7.43
2022-09-21T04:06:19.542Z,7.73
2022-09-21T04:09:21.908Z,7.75
2022-09-21T04:12:24.234Z,8.30
2022-09-21T04:15:26.866Z,7.82
2022-09-21T04:18:29.306Z,8.50
2022-09-21T04:21:32.800Z,8.07
2022-09-21T04:24:35.099Z,7.90
2022-09-21T04:27:37.543Z,8.18
2022-09-21T04:30:40.316Z,8.30
2022-09-21T04:33:42.774Z,8.60
2022-09-21T04:36:45.956Z,8.57
2022-09-21T04:39:48.479Z,7.30
2022-09-21T04:42:52.804Z,8.52
2022-09-21T04:45:55.315Z,9.23
2022-09-21T04:48:57.713Z,9.82
2022-09-21T04:52:00.187Z,9.90
2022-09-21T04:55:02.843Z,8.95
2022-09-21T04:58:05.429Z,8.60
2022-09-21T05:01:07.775Z,9.30
2022-09-21T05:04:10.410Z,9.00
2022-09-21T05:07:12.763Z,8.40
2022-09-21T05:10:16.142Z,8.77
2022-09-21T05:13:19.887Z,8.93
2022-09-21T05:16:22.449Z,8.48
2022-09-21T05:19:24.755Z,9.02
2022-09-21T05:22:27.934Z,8.67
2022-09-21T05:25:30.408Z,8.48
2022-09-21T05:28:37.729Z,8.80
2022-09-21T05:36:08.928Z,8.13
2022-09-21T05:39:12.121Z,8.57
2022-09-21T05:42:14.756Z,8.10
2022-09-21T05:45:19.107Z,8.23
2022-09-21T05:48:42.016Z,7.80
2022-09-21T05:52:08.663Z,8.43
2022-09-21T05:55:29.673Z,8.00
2022-09-21T05:58:56.358Z,7.70
2022-09-21T06:02:21.044Z,7.82
2022-09-21T06:05:24.144Z,7.38
2022-09-21T06:08:27.256Z,7.53
2022-09-21T06:11:29.599Z,7.10
2022-09-21T06:14:32.214Z,7.30
2022-09-21T06:17:34.606Z,6.80
2022-09-21T06:20:37.095Z,7.00
2022-09-21T06:23:39.640Z,7.22
2022-09-21T06:26:43.030Z,6.53
2022-09-21T06:29:45.421Z,6.93
2022-09-21T06:32:47.784Z,7.15
2022-09-21T06:35:58.158Z,5.95
2022-09-21T06:39:00.488Z,6.25
2022-09-21T06:42:02.903Z,5.87
2022-09-21T06:45:05.897Z,6.05
2022-09-21T06:48:08.685Z,6.03
2022-09-21T06:51:11.059Z,5.60
2022-09-21T06:54:13.481Z,5.22
2022-09-21T06:57:15.887Z,5.43
2022-09-21T07:00:18.477Z,5.63
2022-09-21T07:03:20.852Z,5.30
2022-09-21T07:06:23.384Z,4.75
2022-09-21T07:12:49.514Z,4.33
2022-09-21T07:15:53.447Z,4.43
2022-09-21T07:18:56.919Z,4.05
2022-09-21T07:21:59.507Z,3.97
2022-09-21T07:25:02.391Z,4.13
2022-09-21T07:28:05.002Z,3.80
2022-09-21T07:31:17.465Z,3.80
2022-09-21T07:34:19.958Z,3.83
2022-09-21T07:37:24.604Z,3.53
2022-09-21T07:40:27.336Z,3.97
2022-09-21T07:43:29.715Z,3.07
2022-09-21T07:46:32.031Z,3.45
2022-09-21T07:49:35.109Z,3.30
2022-09-21T07:52:37.523Z,3.05
2022-09-21T07:55:39.839Z,3.38
2022-09-21T07:59:02.207Z,3.23
2022-09-21T08:02:04.660Z,3.25
2022-09-21T08:05:07.454Z,3.13
2022-09-21T08:08:10.097Z,2.95
2022-09-21T08:11:12.652Z,3.60
2022-09-21T08:14:23.649Z,2.90
2022-09-21T08:17:27.709Z,2.67
2022-09-21T08:20:30.158Z,2.60
2022-09-21T08:23:32.892Z,2.30
2022-09-21T08:26:35.766Z,2.53
2022-09-21T08:29:39.008Z,2.57
2022-09-21T08:32:51.024Z,2.58
2022-09-21T08:35:55.339Z,2.35
2022-09-21T08:38:58.609Z,2.28
2022-09-21T08:42:10.355Z,2.38
2022-09-21T08:45:17.541Z,2.40
2022-09-21T08:48:29.021Z,2.30
2022-09-21T08:51:37.758Z,2.50
2022-09-21T08:54:53.634Z,2.50
2022-09-21T08:57:55.923Z,2.10
2022-09-21T09:01:19.620Z,2.13
2022-09-21T09:04:49.847Z,2.30
2022-09-21T09:08:12.277Z,3.25
2022-09-21T09:11:44.202Z,2.25
2022-09-21T09:15:24.059Z,1.90
2022-09-21T09:18:32.166Z,1.90
2022-09-21T09:21:39.519Z,2.35
2022-09-21T09:24:43.419Z,1.90
2022-09-21T09:27:48.102Z,1.70
2022-09-21T09:30:59.269Z,1.80
2022-09-21T09:34:32.014Z,1.30
2022-09-21T09:37:38.853Z,1.90
2022-09-21T09:40:56.499Z,1.92
2022-09-21T09:44:14.037Z,1.80
2022-09-21T09:47:22.422Z,2.00
2022-09-21T09:50:37.461Z,2.00
2022-09-21T09:53:40.441Z,2.08
2022-09-21T09:56:43.760Z,2.00
2022-09-21T09:59:55.370Z,1.65
2022-09-21T10:02:58.874Z,1.50
2022-09-21T10:06:01.318Z,1.60
2022-09-21T10:09:26.191Z,1.70
2022-09-21T10:12:30.211Z,1.92
2022-09-21T10:15:33.229Z,1.70
2022-09-21T10:18:44.668Z,1.98
2022-09-21T10:21:51.851Z,1.70
2022-09-21T10:24:56.271Z,1.70
2022-09-21T10:27:59.226Z,1.90
2022-09-21T10:31:12.862Z,1.60
2022-09-21T10:34:16.233Z,2.00
2022-09-21T10:37:40.174Z,1.90
2022-09-21T10:40:44.913Z,1.90
2022-09-21T10:43:50.682Z,1.88
2022-09-21T10:46:53.855Z,1.80
2022-09-21T10:49:58.727Z,2.00
2022-09-21T10:53:12.447Z,1.90
2022-09-21T10:56:20.791Z,2.20
2022-09-21T10:59:26.762Z,1.98
2022-09-21T11:02:36.741Z,1.77
2022-09-21T11:05:43.207Z,1.90
2022-09-21T11:08:58.298Z,2.10
2022-09-21T11:12:30.781Z,2.15
2022-09-21T11:15:40.376Z,2.20
2022-09-21T11:19:04.980Z,2.20
2022-09-21T11:22:22.798Z,2.13
2022-09-21T11:25:43.140Z,1.53
2022-09-21T11:29:06.217Z,1.60
2022-09-21T11:32:24.515Z,1.83
2022-09-21T11:35:44.952Z,1.73
2022-09-21T11:39:21.088Z,1.70
2022-09-21T11:42:47.771Z,1.80
2022-09-21T11:46:16.190Z,1.90
2022-09-21T11:49:33.875Z,1.90
2022-09-21T11:52:54.588Z,2.08
2022-09-21T11:56:18.233Z,1.90
2022-09-21T11:59:33.054Z,2.03
2022-09-21T12:06:35.515Z,1.50
2022-09-21T12:09:50.018Z,1.20
2022-09-21T12:12:55.428Z,1.55
2022-09-21T12:16:16.590Z,1.23
2022-09-21T12:20:02.243Z,1.40
2022-09-21T12:23:14.916Z,1.20
2022-09-21T12:26:23.149Z,1.27
2022-09-21T12:29:49.124Z,1.10
2022-09-21T12:33:00.236Z,1.90
2022-09-21T12:36:39.479Z,2.00
2022-09-21T12:40:01.155Z,2.33
2022-09-21T12:43:11.857Z,2.30
2022-09-21T12:46:38.009Z,2.33
2022-09-21T12:49:44.605Z,1.97
2022-09-21T12:52:48.027Z,2.47
2022-09-21T12:56:01.241Z,2.30
2022-09-21T12:59:14.763Z,2.33
2022-09-21T13:02:21.869Z,2.50
2022-09-21T13:05:27.151Z,2.30
2022-09-21T13:08:36.663Z,3.40
2022-09-21T13:11:52.920Z,3.55
2022-09-21T13:15:03.070Z,5.32
2022-09-21T13:18:15.339Z,5.35
2022-09-21T13:21:20.326Z,4.33
2022-09-21T13:24:29.897Z,2.40
2022-09-21T13:28:04.224Z,2.33
2022-09-21T13:31:39.467Z,2.60
2022-09-21T13:34:43.330Z,2.50
2022-09-21T13:38:24.071Z,2.93
2022-09-21T13:41:40.272Z,3.22
2022-09-21T13:44:50.215Z,3.50
2022-09-21T13:48:07.030Z,3.58
2022-09-21T13:51:19.634Z,3.35
2022-09-21T13:54:25.554Z,2.70
2022-09-21T13:57:41.816Z,2.70
2022-09-21T14:01:04.395Z,2.30
2022-09-21T14:04:25.309Z,1.67
2022-09-21T14:07:32.494Z,1.77
2022-09-21T14:10:37.966Z,1.73
2022-09-21T14:13:45.662Z,1.70
2022-09-21T14:16:57.719Z,1.90
2022-09-21T14:20:00.562Z,1.60
2022-09-21T14:23:14.771Z,1.67
2022-09-21T14:26:35.715Z,1.83
2022-09-21T14:30:00.388Z,2.28
2022-09-21T14:33:17.567Z,1.63
2022-09-21T14:36:25.573Z,1.90
2022-09-21T14:39:37.906Z,1.55
2022-09-21T14:42:41.131Z,1.33
2022-09-21T14:46:08.505Z,1.77
2022-09-21T14:49:45.622Z,2.13
2022-09-21T14:53:08.120Z,2.45
2022-09-21T14:56:33.248Z,2.60
2022-09-21T14:59:49.617Z,2.53
2022-09-21T15:03:18.912Z,2.25
2022-09-21T15:06:56.658Z,1.90
2022-09-21T15:10:23.764Z,2.00
2022-09-21T15:14:40.792Z,2.67
2022-09-21T15:18:04.093Z,2.90
2022-09-21T15:21:26.453Z,2.08
2022-09-21T15:24:32.848Z,2.33
2022-09-21T15:27:35.863Z,2.25
2022-09-21T15:30:45.956Z,2.10
2022-09-21T15:33:50.399Z,1.80
2022-09-21T15:36:53.208Z,1.92
2022-09-21T15:40:09.057Z,1.92
2022-09-21T15:43:11.646Z,2.00
2022-09-21T15:46:14.568Z,2.10
2022-09-21T15:49:22.558Z,2.20
2022-09-21T15:52:37.989Z,2.03
2022-09-21T15:55:41.168Z,1.98
2022-09-21T15:58:47.651Z,1.67
2022-09-21T16:01:55.122Z,2.00
2022-09-21T16:04:57.550Z,2.23
2022-09-21T16:08:23.432Z,2.35
2022-09-21T16:11:26.417Z,2.20
2022-09-21T16:14:47.207Z,2.58
2022-09-21T16:18:05.171Z,2.58
2022-09-21T16:21:09.834Z,2.17
2022-09-21T16:24:22.231Z,1.60
2022-09-21T16:27:27.283Z,1.90
2022-09-21T16:30:51.021Z,1.52
2022-09-21T16:34:07.358Z,1.50
2022-09-21T16:37:25.010Z,2.03
2022-09-21T16:40:28.643Z,1.90
2022-09-21T16:43:31.015Z,1.92
2022-09-21T16:46:33.468Z,2.00
2022-09-21T16:49:36.089Z,2.15
2022-09-21T16:52:38.426Z,2.20
2022-09-21T16:55:43.222Z,2.10
2022-09-21T16:58:46.120Z,4.00
2022-09-21T17:01:54.115Z,4.68
2022-09-21T17:04:58.450Z,4.38
2022-09-21T17:08:01.214Z,4.40
2022-09-21T17:11:04.470Z,4.13
2022-09-21T17:14:07.323Z,4.22
2022-09-21T17:17:22.252Z,4.13
2022-09-21T17:20:35.682Z,4.07
2022-09-21T17:23:38.598Z,3.83
2022-09-21T17:26:41.470Z,7.47
2022-09-21T17:29:49.268Z,7.63
2022-09-21T17:32:52.033Z,6.80
2022-09-21T17:35:55.137Z,6.20
2022-09-21T17:38:57.994Z,5.50
2022-09-21T17:42:18.763Z,5.80
2022-09-21T17:45:50.490Z,5.57
2022-09-21T17:48:53.171Z,5.55
2022-09-21T17:52:14.041Z,4.97
2022-09-21T17:55:16.676Z,5.93
2022-09-21T17:58:34.433Z,7.95
2022-09-21T18:01:39.951Z,7.75
2022-09-21T18:04:42.512Z,9.23
2022-09-21T18:07:45.267Z,8.75
2022-09-21T18:11:01.689Z,8.43
2022-09-21T18:14:25.226Z,8.95
2022-09-21T18:17:59.847Z,9.85
2022-09-21T18:21:29.383Z,10.40
2022-09-21T18:24:32.026Z,10.43
2022-09-21T18:27:34.569Z,9.70
2022-09-21T18:30:41.547Z,9.82
2022-09-21T18:33:56.763Z,11.35
2022-09-21T18:37:26.380Z,11.82
2022-09-21T18:40:59.154Z,13.27
2022-09-21T18:44:10.505Z,15.60
2022-09-21T18:47:20.565Z,15.43
2022-09-21T18:50:32.780Z,15.10
2022-09-21T18:53:53.697Z,15.27
2022-09-21T18:56:56.348Z,15.68
2022-09-21T18:59:59.781Z,13.53
2022-09-21T19:03:16.916Z,10.50
2022-09-21T19:06:38.660Z,8.00
2022-09-21T19:09:52.132Z,8.00
2022-09-21T19:13:15.171Z,7.32
2022-09-21T19:16:23.488Z,8.57
2022-09-21T19:19:30.029Z,6.95
2022-09-21T19:22:45.293Z,6.53
2022-09-21T19:25:51.854Z,6.35
2022-09-21T19:29:32.353Z,5.13
2022-09-21T19:32:39.723Z,3.93
2022-09-21T19:35:42.687Z,3.88
2022-09-21T19:38:45.136Z,4.40
2022-09-21T19:42:05.969Z,3.88
2022-09-21T19:45:38.911Z,3.30
2022-09-21T19:48:52.093Z,3.30
2022-09-21T19:51:56.689Z,2.95
2022-09-21T19:55:18.124Z,2.83
2022-09-21T19:58:39.322Z,3.38
2022-09-21T20:01:52.565Z,3.40
2022-09-21T20:05:23.266Z,3.03
2022-09-21T20:08:48.909Z,2.97
2022-09-21T20:12:13.481Z,3.90
2022-09-21T20:15:22.394Z,3.25
2022-09-21T20:18:40.657Z,4.50
2022-09-21T20:21:44.576Z,5.63
2022-09-21T20:24:54.476Z,5.75
2022-09-21T20:27:57.968Z,5.57
2022-09-21T20:31:00.557Z,5.25
2022-09-21T20:34:03.026Z,4.90
2022-09-21T20:37:17.097Z,5.10
2022-09-21T20:40:24.879Z,6.32
2022-09-21T20:43:32.445Z,7.65
2022-09-21T20:46:35.178Z,9.80
2022-09-21T20:49:37.685Z,11.02
2022-09-21T20:52:41.540Z,8.23
2022-09-21T20:55:56.039Z,9.13
2022-09-21T20:58:59.297Z,9.25
2022-09-21T21:02:01.882Z,7.60
2022-09-21T21:05:05.616Z,6.80
2022-09-21T21:08:09.072Z,6.60
2022-09-21T21:11:11.774Z,7.25
2022-09-21T21:14:14.186Z,6.90
2022-09-21T21:17:16.752Z,5.50
2022-09-21T21:20:19.573Z,4.72
2022-09-21T21:23:21.854Z,4.40
2022-09-21T21:26:43.985Z,4.00
2022-09-21T21:29:51.628Z,4.05
2022-09-21T21:32:53.943Z,3.70
2022-09-21T21:36:04.187Z,3.58
2022-09-21T21:39:07.317Z,3.70
2022-09-21T21:42:10.092Z,3.70
2022-09-21T21:45:12.468Z,3.80
2022-09-21T21:48:15.084Z,3.30
2022-09-21T21:51:17.758Z,3.70
2022-09-21T21:54:25.651Z,3.80
2022-09-21T21:57:27.966Z,3.70
2022-09-21T22:00:30.259Z,3.33
2022-09-21T22:03:32.705Z,3.10
2022-09-21T22:06:36.821Z,3.03
2022-09-21T22:09:39.318Z,3.23
2022-09-21T22:12:45.016Z,3.10
2022-09-21T22:15:47.323Z,3.50
2022-09-21T22:18:50.833Z,3.30
2022-09-21T22:21:54.449Z,3.05
2022-09-21T22:24:57.016Z,3.30
2022-09-21T22:27:59.897Z,3.17
2022-09-21T22:31:03.625Z,3.00
2022-09-21T22:34:06.566Z,3.40
2022-09-21T22:37:08.911Z,6.80
2022-09-21T22:40:11.267Z,6.50
2022-09-21T22:43:13.600Z,7.20
2022-09-21T22:46:19.171Z,6.30
2022-09-21T22:49:21.522Z,4.45
2022-09-21T22:52:23.882Z,3.90
2022-09-21T22:55:26.225Z,3.33
2022-09-21T22:58:29.186Z,2.97
2022-09-21T23:01:37.860Z,3.30
2022-09-21T23:04:40.417Z,2.67
2022-09-21T23:07:42.694Z,3.00
2022-09-21T23:10:45.033Z,3.17
2022-09-21T23:13:47.932Z,2.40
2022-09-21T23:16:50.523Z,2.75
2022-09-21T23:19:52.823Z,2.90
2022-09-21T23:22:55.158Z,2.80
2022-09-21T23:26:01.370Z,2.87
2022-09-21T23:29:08.900Z,2.90
2022-09-21T23:32:11.279Z,2.50
2022-09-21T23:35:13.623Z,2.72
2022-09-21T23:38:15.945Z,3.10
2022-09-21T23:41:21.501Z,2.80
2022-09-21T23:44:23.785Z,2.80
2022-09-21T23:47:26.111Z,3.03
2022-09-21T23:50:28.361Z,2.90
2022-09-21T23:53:31.640Z,3.00
2022-09-21T23:56:34.057Z,2.90
2022-09-21T23:59:36.437Z,3.35
